createdAt,value
2018-12-15T00:00:32.172Z,14.98
2018-12-15T00:03:02.544Z,14.78
2018-12-15T00:05:32.811Z,14.03
2018-12-15T00:08:01.103Z,13.55
2018-12-15T00:10:29.356Z,14.07
2018-12-15T00:12:57.623Z,14.80
2018-12-15T00:15:42.734Z,11.70
2018-12-15T00:18:10.991Z,12.80
2018-12-15T00:20:39.799Z,12.95
2018-12-15T00:23:07.970Z,11.73
2018-12-15T00:25:36.248Z,13.60
2018-12-15T00:28:04.537Z,13.15
2018-12-15T00:30:32.808Z,13.35
2018-12-15T00:33:01.029Z,12.45
2018-12-15T00:35:29.371Z,13.13
2018-12-15T00:37:57.588Z,12.63
2018-12-15T00:40:25.866Z,13.53
2018-12-15T00:42:54.157Z,13.48
2018-12-15T00:45:22.721Z,13.80
2018-12-15T00:47:51.148Z,13.70
2018-12-15T00:50:19.435Z,13.05
2018-12-15T00:52:47.630Z,12.75
2018-12-15T00:55:15.946Z,15.00
2018-12-15T00:57:44.240Z,13.88
2018-12-15T01:00:12.829Z,14.60
2018-12-15T01:02:41.173Z,13.60
2018-12-15T01:05:09.519Z,13.88
2018-12-15T01:07:37.785Z,13.43
2018-12-15T01:10:06.082Z,12.15
2018-12-15T01:12:34.289Z,12.37
2018-12-15T01:15:02.719Z,12.37
2018-12-15T01:17:30.879Z,12.20
2018-12-15T01:19:59.163Z,11.00
2018-12-15T01:22:27.445Z,11.57
2018-12-15T01:24:55.722Z,12.13
2018-12-15T01:27:23.952Z,10.53
2018-12-15T01:29:52.211Z,12.58
2018-12-15T01:32:20.495Z,12.15
2018-12-15T01:34:49.729Z,11.60
2018-12-15T01:37:17.915Z,11.48
2018-12-15T01:39:46.178Z,11.80
2018-12-15T01:42:14.431Z,10.65
2018-12-15T01:44:42.687Z,11.48
2018-12-15T01:47:10.964Z,12.35
2018-12-15T01:49:39.267Z,11.10
2018-12-15T01:52:07.560Z,10.85
2018-12-15T01:54:35.773Z,11.10
2018-12-15T01:57:04.123Z,11.33
2018-12-15T01:59:32.367Z,11.80
2018-12-15T02:02:00.738Z,11.55
2018-12-15T02:04:30.145Z,10.65
2018-12-15T02:06:58.487Z,11.55
2018-12-15T02:09:26.682Z,11.57
2018-12-15T02:11:54.991Z,11.10
2018-12-15T02:14:23.219Z,10.63
2018-12-15T02:16:52.332Z,11.18
2018-12-15T02:19:20.619Z,10.32
2018-12-15T02:21:48.934Z,10.80
2018-12-15T02:24:17.256Z,10.93
2018-12-15T02:26:45.443Z,11.22
2018-12-15T02:29:15.791Z,10.45
2018-12-15T02:31:44.564Z,10.20
2018-12-15T02:34:12.741Z,11.15
2018-12-15T02:36:40.994Z,10.68
2018-12-15T02:39:10.512Z,10.85
2018-12-15T02:41:47.028Z,10.75
2018-12-15T02:44:09.948Z,10.65
2018-12-15T02:46:38.188Z,10.63
2018-12-15T02:49:06.474Z,9.90
2018-12-15T02:51:34.766Z,8.68
2018-12-15T02:54:03.028Z,10.13
2018-12-15T02:56:31.331Z,8.88
2018-12-15T02:58:59.598Z,9.90
2018-12-15T03:01:27.826Z,8.73
2018-12-15T03:03:56.126Z,9.15
2018-12-15T03:06:24.437Z,10.68
2018-12-15T03:08:52.737Z,10.10
2018-12-15T03:11:21.421Z,11.12
2018-12-15T03:13:49.643Z,10.00
2018-12-15T03:16:17.926Z,11.18
2018-12-15T03:18:46.161Z,9.73
2018-12-15T03:21:15.843Z,10.72
2018-12-15T03:23:44.014Z,10.40
2018-12-15T03:26:12.237Z,10.82
2018-12-15T03:28:40.515Z,10.15
2018-12-15T03:31:08.841Z,10.40
2018-12-15T03:33:37.051Z,10.72
2018-12-15T03:36:05.363Z,10.30
2018-12-15T03:38:34.450Z,10.98
2018-12-15T03:41:02.754Z,10.03
2018-12-15T03:43:30.995Z,10.95
2018-12-15T03:45:59.310Z,9.53
2018-12-15T03:48:28.786Z,10.08
2018-12-15T03:50:57.052Z,9.65
2018-12-15T03:53:25.336Z,9.95
2018-12-15T03:55:53.597Z,8.98
2018-12-15T03:58:22.279Z,9.33
2018-12-15T04:00:50.555Z,9.10
2018-12-15T04:03:18.851Z,8.38
2018-12-15T04:05:47.116Z,8.60
2018-12-15T04:15:12.493Z,9.98
2018-12-15T04:17:40.644Z,9.43
2018-12-15T04:20:08.929Z,10.60
2018-12-15T04:22:37.223Z,10.80
2018-12-15T04:25:05.509Z,10.45
2018-12-15T04:27:34.994Z,10.68
2018-12-15T04:30:06.775Z,11.20
2018-12-15T04:32:35.679Z,10.35
2018-12-15T04:35:05.196Z,9.55
2018-12-15T04:37:33.411Z,10.20
2018-12-15T04:40:01.705Z,9.48
2018-12-15T04:42:31.211Z,10.85
2018-12-15T04:44:59.455Z,10.75
2018-12-15T04:47:27.901Z,11.12
2018-12-15T04:49:57.254Z,11.22
2018-12-15T04:52:25.503Z,11.33
2018-12-15T04:54:53.803Z,11.85
2018-12-15T04:57:22.095Z,14.30
2018-12-15T04:59:50.383Z,13.03
2018-12-15T05:02:18.647Z,12.15
2018-12-15T05:04:47.271Z,15.03
2018-12-15T05:07:15.595Z,13.85
2018-12-15T05:09:43.887Z,12.40
2018-12-15T05:12:13.189Z,12.40
2018-12-15T05:14:41.633Z,13.38
2018-12-15T05:17:09.957Z,12.43
2018-12-15T05:19:38.196Z,11.95
2018-12-15T05:22:09.949Z,12.45
2018-12-15T05:24:38.596Z,12.78
2018-12-15T05:27:08.612Z,11.43
2018-12-15T05:29:37.041Z,11.85
2018-12-15T05:32:05.337Z,12.98
2018-12-15T05:34:33.596Z,15.95
2018-12-15T05:37:01.893Z,21.25
2018-12-15T05:39:30.139Z,17.27
2018-12-15T05:41:58.466Z,14.65
2018-12-15T05:44:26.716Z,11.90
2018-12-15T05:46:54.978Z,12.43
2018-12-15T05:49:23.252Z,15.23
2018-12-15T05:51:52.375Z,11.85
2018-12-15T05:54:20.651Z,11.83
2018-12-15T05:59:44.219Z,10.90
2018-12-15T06:02:15.124Z,11.10
2018-12-15T06:04:43.637Z,12.85
2018-12-15T06:07:11.946Z,13.15
2018-12-15T06:09:40.224Z,13.60
2018-12-15T06:12:11.755Z,13.68
2018-12-15T06:14:40.043Z,13.10
2018-12-15T06:17:08.286Z,14.80
2018-12-15T06:19:36.575Z,13.15
2018-12-15T06:22:04.900Z,14.93
2018-12-15T06:24:33.125Z,14.23
2018-12-15T06:27:02.250Z,14.68
2018-12-15T06:29:30.480Z,15.15
2018-12-15T06:31:58.766Z,15.08
2018-12-15T06:34:27.063Z,15.15
2018-12-15T06:36:56.540Z,15.53
2018-12-15T06:39:24.873Z,16.57
2018-12-15T06:41:53.088Z,16.40
2018-12-15T06:44:21.375Z,16.50
2018-12-15T06:46:49.603Z,16.35
2018-12-15T06:49:17.938Z,18.20
2018-12-15T06:51:46.975Z,18.40
2018-12-15T06:54:15.312Z,19.65
2018-12-15T06:56:43.573Z,18.62
2018-12-15T06:59:11.831Z,18.55
2018-12-15T07:01:40.106Z,18.82
2018-12-15T07:04:08.415Z,21.55
2018-12-15T07:06:36.640Z,21.77
2018-12-15T07:09:06.712Z,20.17
2018-12-15T07:11:36.094Z,19.45
2018-12-15T07:14:04.387Z,15.60
2018-12-15T07:16:36.387Z,16.25
2018-12-15T07:19:04.602Z,15.38
2018-12-15T07:21:32.868Z,15.08
2018-12-15T07:24:01.175Z,15.53
2018-12-15T07:26:29.407Z,16.93
2018-12-15T07:28:57.700Z,16.55
2018-12-15T07:31:26.006Z,17.42
2018-12-15T07:33:54.265Z,18.60
2018-12-15T07:36:22.543Z,16.05
2018-12-15T07:38:50.863Z,17.10
2018-12-15T07:41:19.142Z,16.32
2018-12-15T07:43:47.403Z,19.20
2018-12-15T07:46:15.701Z,18.30
2018-12-15T07:48:43.976Z,25.57
2018-12-15T07:51:12.683Z,20.72
2018-12-15T07:53:40.899Z,23.85
2018-12-15T07:56:09.167Z,20.37
2018-12-15T07:58:37.320Z,21.27
2018-12-15T08:01:05.884Z,22.62
2018-12-15T08:03:34.013Z,22.30
2018-12-15T08:06:02.354Z,19.80
2018-12-15T08:08:30.566Z,19.57
2018-12-15T08:11:04.401Z,21.45
2018-12-15T08:13:33.691Z,20.75
2018-12-15T08:16:01.973Z,22.25
2018-12-15T08:18:30.179Z,20.37
2018-12-15T08:20:58.568Z,21.12
2018-12-15T08:23:26.787Z,17.00
2018-12-15T08:28:49.964Z,20.00
2018-12-15T08:31:18.037Z,20.08
2018-12-15T08:33:46.567Z,18.48
2018-12-15T08:36:15.041Z,18.95
2018-12-15T08:38:43.455Z,17.77
2018-12-15T08:41:11.723Z,17.42
2018-12-15T08:43:40.202Z,19.57
2018-12-15T08:46:11.933Z,18.70
2018-12-15T08:48:42.287Z,19.73
2018-12-15T08:51:11.141Z,18.85
2018-12-15T08:53:39.730Z,20.68
2018-12-15T08:56:10.038Z,26.50
2018-12-15T08:58:39.468Z,26.68
2018-12-15T09:01:07.813Z,23.90
2018-12-15T09:03:36.055Z,22.90
2018-12-15T09:06:04.335Z,23.92
2018-12-15T09:08:33.829Z,20.88
2018-12-15T09:11:02.135Z,23.25
2018-12-15T09:13:30.346Z,23.52
2018-12-15T09:15:58.628Z,25.00
2018-12-15T09:18:28.154Z,24.27
2018-12-15T09:20:56.474Z,22.02
2018-12-15T09:23:24.744Z,22.77
2018-12-15T09:25:52.968Z,20.43
2018-12-15T09:28:21.321Z,21.55
2018-12-15T09:30:49.552Z,19.40
2018-12-15T09:33:17.814Z,18.73
2018-12-15T09:35:46.147Z,17.60
2018-12-15T09:38:14.339Z,15.00
2018-12-15T09:40:42.647Z,12.93
2018-12-15T09:43:10.898Z,14.00
2018-12-15T09:45:39.188Z,13.90
2018-12-15T09:48:07.613Z,15.68
2018-12-15T09:50:35.748Z,15.72
2018-12-15T09:53:05.300Z,13.88
2018-12-15T09:55:33.568Z,13.88
2018-12-15T09:58:01.844Z,13.48
2018-12-15T10:00:30.098Z,15.08
2018-12-15T10:02:59.594Z,14.78
2018-12-15T10:05:27.836Z,15.65
2018-12-15T10:07:56.109Z,15.85
2018-12-15T10:10:24.413Z,15.85
2018-12-15T10:12:52.671Z,12.95
2018-12-15T10:15:21.034Z,14.10
2018-12-15T10:17:49.218Z,15.13
2018-12-15T10:20:17.498Z,13.32
2018-12-15T10:22:46.162Z,15.38
2018-12-15T10:25:17.728Z,14.18
2018-12-15T10:27:45.799Z,13.75
2018-12-15T10:30:19.687Z,13.72
2018-12-15T10:32:52.386Z,15.45
2018-12-15T10:35:21.564Z,14.58
2018-12-15T10:37:49.796Z,15.03
2018-12-15T10:40:18.123Z,13.28
2018-12-15T10:42:46.305Z,13.25
2018-12-15T10:45:14.722Z,13.30
2018-12-15T10:47:42.898Z,13.18
2018-12-15T10:50:11.555Z,14.07
2018-12-15T10:52:39.859Z,14.07
2018-12-15T10:55:09.137Z,12.40
2018-12-15T10:57:37.738Z,11.05
2018-12-15T11:00:13.208Z,12.75
2018-12-15T11:02:42.795Z,14.35
2018-12-15T11:05:12.679Z,14.55
2018-12-15T11:07:41.404Z,12.13
2018-12-15T11:10:09.651Z,13.00
2018-12-15T11:12:37.901Z,15.13
2018-12-15T11:15:07.501Z,14.47
2018-12-15T11:17:37.732Z,13.45
2018-12-15T11:20:07.063Z,14.10
2018-12-15T11:22:35.544Z,13.10
2018-12-15T11:25:04.095Z,14.95
2018-12-15T11:27:32.209Z,15.32
2018-12-15T11:30:00.372Z,19.87
2018-12-15T11:32:28.648Z,17.92
2018-12-15T11:34:56.932Z,19.92
2018-12-15T11:37:25.169Z,22.35
2018-12-15T11:39:53.457Z,21.17
2018-12-15T11:42:21.756Z,20.12
2018-12-15T11:44:51.283Z,22.20
2018-12-15T11:47:19.516Z,23.85
2018-12-15T11:49:47.806Z,25.90
2018-12-15T11:52:16.088Z,22.98
2018-12-15T11:54:44.367Z,22.35
2018-12-15T11:57:13.910Z,21.20
2018-12-15T11:59:42.487Z,26.27
2018-12-15T12:02:10.873Z,21.55
2018-12-15T12:04:39.722Z,22.87
2018-12-15T12:07:09.450Z,20.02
2018-12-15T12:09:38.908Z,19.87
2018-12-15T12:12:08.002Z,19.15
2018-12-15T12:14:36.331Z,16.17
2018-12-15T12:17:05.002Z,16.57
2018-12-15T12:19:33.248Z,18.37
2018-12-15T12:22:01.575Z,17.90
2018-12-15T12:24:31.024Z,17.23
2018-12-15T12:27:01.388Z,18.70
2018-12-15T12:29:30.854Z,20.20
2018-12-15T12:31:59.175Z,18.77
2018-12-15T12:34:28.647Z,20.17
2018-12-15T12:36:56.909Z,23.27
2018-12-15T12:39:25.290Z,22.27
2018-12-15T12:41:55.518Z,18.73
2018-12-15T12:44:25.867Z,20.35
2018-12-15T12:46:54.143Z,22.58
2018-12-15T12:49:23.632Z,22.60
2018-12-15T12:51:51.862Z,20.52
2018-12-15T12:54:20.196Z,21.77
2018-12-15T12:56:48.455Z,19.98
2018-12-15T12:59:16.779Z,19.12
2018-12-15T13:01:46.256Z,20.90
2018-12-15T13:04:14.496Z,22.77
2018-12-15T13:06:42.803Z,25.80
2018-12-15T13:09:11.087Z,26.70
2018-12-15T13:11:39.345Z,23.60
2018-12-15T13:14:07.603Z,38.63
2018-12-15T13:16:35.912Z,32.98
2018-12-15T13:19:04.224Z,27.37
2018-12-15T13:21:32.441Z,21.35
2018-12-15T13:24:00.747Z,18.75
2018-12-15T13:26:28.987Z,23.15
2018-12-15T13:28:57.283Z,21.48
2018-12-15T13:31:25.552Z,21.37
2018-12-15T13:33:53.856Z,18.32
2018-12-15T13:36:22.104Z,17.85
2018-12-15T13:38:50.360Z,18.32
2018-12-15T13:41:18.786Z,22.45
2018-12-15T13:43:46.942Z,21.20
2018-12-15T13:46:15.215Z,20.15
2018-12-15T13:48:43.494Z,19.95
2018-12-15T13:51:11.799Z,18.85
2018-12-15T13:53:41.329Z,18.35
2018-12-15T13:56:13.228Z,19.73
2018-12-15T13:58:41.487Z,25.68
2018-12-15T14:01:09.819Z,21.30
2018-12-15T14:03:38.029Z,19.35
2018-12-15T14:06:06.310Z,20.77
2018-12-15T14:08:35.439Z,20.97
2018-12-15T14:11:03.746Z,19.55
2018-12-15T14:13:31.988Z,20.00
2018-12-15T14:16:00.279Z,22.90
2018-12-15T14:18:28.581Z,24.20
2018-12-15T14:20:58.031Z,23.05
2018-12-15T14:23:26.310Z,24.12
2018-12-15T14:25:54.571Z,25.57
2018-12-15T14:28:22.700Z,24.90
2018-12-15T14:30:51.101Z,23.00
2018-12-15T14:33:19.422Z,23.18
2018-12-15T14:35:47.667Z,19.57
2018-12-15T14:38:15.992Z,21.35
2018-12-15T14:40:44.283Z,19.40
2018-12-15T14:43:12.518Z,16.05
2018-12-15T14:45:40.789Z,17.32
2018-12-15T14:48:09.051Z,18.23
2018-12-15T14:50:37.307Z,17.80
2018-12-15T14:53:05.660Z,20.82
2018-12-15T14:55:33.923Z,19.02
2018-12-15T14:58:02.203Z,17.25
2018-12-15T15:00:31.757Z,19.60
2018-12-15T15:03:00.377Z,20.65
2018-12-15T15:05:28.651Z,19.90
2018-12-15T15:07:56.952Z,20.92
2018-12-15T15:10:25.191Z,22.80
2018-12-15T15:12:53.460Z,24.00
2018-12-15T15:15:21.772Z,22.67
2018-12-15T15:17:51.282Z,19.50
2018-12-15T15:20:21.397Z,20.90
2018-12-15T15:22:49.900Z,21.40
2018-12-15T15:25:18.927Z,19.98
2018-12-15T15:27:47.055Z,22.65
2018-12-15T15:30:15.119Z,23.75
2018-12-15T15:32:43.730Z,24.07
2018-12-15T15:35:12.091Z,24.05
2018-12-15T15:37:40.344Z,21.33
2018-12-15T15:40:09.607Z,22.32
2018-12-15T15:42:38.111Z,22.80
2018-12-15T15:45:06.831Z,21.27
2018-12-15T15:47:35.108Z,20.95
2018-12-15T15:50:03.894Z,21.48
2018-12-15T15:52:32.047Z,21.07
2018-12-15T15:55:00.312Z,22.00
2018-12-15T15:57:28.603Z,22.85
2018-12-15T15:59:56.827Z,25.25
2018-12-15T16:02:25.113Z,25.12
2018-12-15T16:04:53.426Z,21.95
2018-12-15T16:07:21.675Z,32.45
2018-12-15T16:09:49.987Z,33.25
2018-12-15T16:12:18.195Z,28.60
2018-12-15T16:14:46.315Z,26.80
2018-12-15T16:17:14.431Z,29.05
2018-12-15T16:19:44.297Z,25.55
2018-12-15T16:22:12.638Z,24.60
2018-12-15T16:24:42.099Z,24.50
2018-12-15T16:27:11.552Z,25.43
2018-12-15T16:29:41.111Z,25.40
2018-12-15T16:32:09.380Z,24.95
2018-12-15T16:34:37.644Z,28.25
2018-12-15T16:37:05.979Z,23.57
2018-12-15T16:39:34.170Z,23.30
2018-12-15T16:42:02.300Z,26.05
2018-12-15T16:44:30.763Z,39.00
2018-12-15T16:47:00.304Z,24.15
2018-12-15T16:49:28.566Z,25.57
2018-12-15T16:51:56.802Z,26.77
2018-12-15T16:54:25.098Z,25.82
2018-12-15T16:56:53.393Z,24.85
2018-12-15T16:59:21.667Z,28.45
2018-12-15T17:01:49.904Z,27.67
2018-12-15T17:04:18.049Z,26.40
2018-12-15T17:06:46.439Z,27.15
2018-12-15T17:09:15.972Z,28.12
2018-12-15T17:11:44.251Z,30.10
2018-12-15T17:14:12.525Z,44.20
2018-12-15T17:16:40.679Z,39.75
2018-12-15T17:19:09.445Z,49.00
2018-12-15T17:21:37.808Z,42.33
2018-12-15T17:24:06.042Z,28.67
2018-12-15T17:26:34.323Z,21.77
2018-12-15T17:29:02.470Z,22.22
2018-12-15T17:31:32.925Z,26.50
2018-12-15T17:34:02.469Z,20.52
2018-12-15T17:36:32.313Z,24.27
2018-12-15T17:39:00.762Z,23.73
2018-12-15T17:41:28.907Z,22.27
2018-12-15T17:43:57.190Z,20.40
2018-12-15T17:46:25.403Z,21.00
2018-12-15T17:48:53.710Z,21.60
2018-12-15T17:51:22.830Z,19.90
2018-12-15T17:53:52.332Z,20.88
2018-12-15T17:56:20.601Z,21.85
2018-12-15T17:58:48.867Z,37.58
2018-12-15T18:01:17.153Z,28.52
2018-12-15T18:03:45.799Z,22.22
2018-12-15T18:06:14.932Z,24.57
2018-12-15T18:08:43.179Z,33.38
2018-12-15T18:11:11.473Z,25.10
2018-12-15T18:13:40.952Z,29.77
2018-12-15T18:16:09.242Z,31.35
2018-12-15T18:25:32.455Z,24.23
2018-12-15T18:28:00.712Z,30.55
2018-12-15T18:30:28.972Z,23.67
2018-12-15T18:32:58.107Z,25.15
2018-12-15T18:35:26.399Z,25.52
2018-12-15T18:37:54.618Z,22.27
2018-12-15T18:40:23.379Z,28.07
2018-12-15T18:42:51.670Z,21.85
2018-12-15T18:45:19.864Z,32.73
2018-12-15T18:47:48.160Z,28.65
2018-12-15T18:50:16.463Z,23.40
2018-12-15T18:52:44.613Z,23.47
2018-12-15T18:55:12.773Z,20.75
2018-12-15T18:57:42.884Z,20.70
2018-12-15T19:00:11.907Z,19.48
2018-12-15T19:02:42.299Z,21.23
2018-12-15T19:05:10.636Z,19.02
2018-12-15T19:07:40.932Z,19.50
2018-12-15T19:10:09.494Z,20.12
2018-12-15T19:12:37.897Z,21.10
2018-12-15T19:15:07.397Z,18.35
2018-12-15T19:17:35.676Z,24.05
2018-12-15T19:20:04.377Z,24.15
2018-12-15T19:22:32.596Z,22.58
2018-12-15T19:25:00.879Z,19.57
2018-12-15T19:27:29.201Z,20.75
2018-12-15T19:29:57.435Z,26.45
2018-12-15T19:32:27.799Z,22.90
2018-12-15T19:34:57.361Z,23.00
2018-12-15T19:37:25.709Z,36.63
2018-12-15T19:39:55.241Z,19.73
2018-12-15T19:42:23.800Z,23.52
2018-12-15T19:44:51.923Z,18.00
2018-12-15T19:47:19.983Z,24.60
2018-12-15T19:49:48.143Z,18.77
2018-12-15T19:52:16.427Z,19.80
2018-12-15T19:54:46.795Z,23.70
2018-12-15T19:57:15.027Z,20.75
2018-12-15T19:59:43.327Z,26.35
2018-12-15T20:02:11.566Z,18.00
2018-12-15T20:04:39.952Z,23.40
2018-12-15T20:07:08.175Z,22.00
2018-12-15T20:09:37.267Z,18.85
2018-12-15T20:12:05.529Z,17.70
2018-12-15T20:14:33.801Z,15.93
2018-12-15T20:17:02.083Z,19.37
2018-12-15T20:19:30.318Z,20.72
2018-12-15T20:21:59.604Z,18.15
2018-12-15T20:24:27.746Z,20.65
2018-12-15T20:26:57.253Z,16.73
2018-12-15T20:29:25.696Z,15.98
2018-12-15T20:31:54.194Z,15.93
2018-12-15T20:34:22.431Z,19.57
2018-12-15T20:36:54.274Z,16.00
2018-12-15T20:39:22.672Z,16.17
2018-12-15T20:41:51.779Z,17.60
2018-12-15T20:44:21.288Z,16.42
2018-12-15T20:46:49.547Z,17.32
2018-12-15T20:49:17.642Z,16.05
2018-12-15T20:51:46.144Z,16.60
2018-12-15T20:54:19.272Z,15.50
2018-12-15T20:56:51.287Z,16.70
2018-12-15T20:59:19.520Z,18.40
2018-12-15T21:01:47.920Z,19.10
2018-12-15T21:04:16.128Z,15.50
2018-12-15T21:06:44.377Z,16.37
2018-12-15T21:09:12.667Z,16.15
2018-12-15T21:11:41.773Z,16.48
2018-12-15T21:14:11.255Z,15.30
2018-12-15T21:16:39.542Z,19.17
2018-12-15T21:19:09.054Z,16.32
2018-12-15T21:21:37.282Z,14.28
2018-12-15T21:24:05.335Z,14.75
2018-12-15T21:26:33.504Z,13.98
2018-12-15T21:29:01.607Z,18.77
2018-12-15T21:31:30.001Z,16.97
2018-12-15T21:33:58.308Z,14.23
2018-12-15T21:36:26.599Z,15.05
2018-12-15T21:38:54.696Z,16.73
2018-12-15T21:41:23.105Z,14.20
2018-12-15T21:43:51.399Z,14.83
2018-12-15T21:46:19.663Z,15.55
2018-12-15T21:48:47.903Z,14.10
2018-12-15T21:51:18.270Z,13.18
2018-12-15T21:53:46.545Z,15.08
2018-12-15T21:56:14.811Z,15.45
2018-12-15T21:58:43.116Z,16.35
2018-12-15T22:01:11.373Z,13.35
2018-12-15T22:03:39.620Z,13.53
2018-12-15T22:06:07.940Z,14.18
2018-12-15T22:08:36.204Z,15.13
2018-12-15T22:11:04.479Z,13.93
2018-12-15T22:13:49.544Z,13.85
2018-12-15T22:16:17.803Z,15.75
2018-12-15T22:18:46.108Z,19.87
2018-12-15T22:21:14.355Z,15.50
2018-12-15T22:23:43.515Z,14.03
2018-12-15T22:26:11.732Z,14.10
2018-12-15T22:28:39.986Z,15.90
2018-12-15T22:31:08.286Z,15.15
2018-12-15T22:33:36.583Z,16.12
2018-12-15T22:36:06.141Z,15.58
2018-12-15T22:38:34.367Z,16.17
2018-12-15T22:41:02.635Z,16.50
2018-12-15T22:43:30.884Z,14.93
2018-12-15T22:45:59.217Z,16.52
2018-12-15T22:48:27.866Z,17.80
2018-12-15T22:50:56.119Z,17.42
2018-12-15T22:53:24.411Z,19.35
2018-12-15T22:55:52.710Z,18.65
2018-12-15T22:58:20.867Z,15.58
2018-12-15T23:00:54.687Z,15.35
2018-12-15T23:03:24.866Z,15.32
2018-12-15T23:05:54.402Z,14.75
2018-12-15T23:08:22.656Z,14.25
2018-12-15T23:10:50.967Z,14.95
2018-12-15T23:13:19.049Z,14.35
2018-12-15T23:15:48.308Z,15.28
2018-12-15T23:18:16.628Z,12.07
2018-12-15T23:20:44.844Z,12.80
2018-12-15T23:23:14.347Z,13.13
2018-12-15T23:25:42.455Z,13.10
2018-12-15T23:28:10.940Z,15.72
2018-12-15T23:30:45.063Z,13.13
2018-12-15T23:33:13.628Z,14.25
2018-12-15T23:35:41.883Z,11.57
2018-12-15T23:38:09.988Z,12.40
2018-12-15T23:40:39.107Z,12.15
2018-12-15T23:43:07.554Z,10.95
2018-12-15T23:45:35.861Z,10.55
2018-12-15T23:48:04.246Z,12.55
2018-12-15T23:50:32.383Z,11.65
2018-12-15T23:53:00.680Z,11.45
2018-12-15T23:55:28.949Z,11.60
2018-12-15T23:57:58.203Z,12.10
